Time;durP1;ratioP1;P1;durP2;ratioP2;P2;SDS_P1;SDS_P2;PMS_P1;PMS_P2;Temp;Humidity;BMP_temperature;BMP_pressure;BME280_temperature;BME280_humidity;BME280_pressure;Samples;Min_cycle;Max_cycle;Signal;HPM_P1;HPM_P2
2023/05/19 00:01:07;;;;;;;56.90;21.00;;;;;;;;;;6138821;23;20356;-79
2023/05/19 00:03:36;;;;;;;59.15;20.83;;;;;;;;;;6188592;23;20012;-79
2023/05/19 00:06:01;;;;;;;59.10;21.02;;;;;;;;;;6164362;23;20428;-80
2023/05/19 00:08:29;;;;;;;51.40;19.48;;;;;;;;;;6188389;23;20040;-81
2023/05/19 00:10:55;;;;;;;55.58;20.52;;;;;;;;;;6188551;23;20005;-80
2023/05/19 00:13:21;;;;;;;55.72;21.13;;;;;;;;;;6215042;23;20486;-81
2023/05/19 00:15:46;;;;;;;51.95;19.38;;;;;;;;;;6214357;23;20404;-80
2023/05/19 00:18:12;;;;;;;52.63;19.48;;;;;;;;;;6188434;23;20416;-79
2023/05/19 00:20:38;;;;;;;56.85;20.38;;;;;;;;;;6163848;23;20031;-81
2023/05/19 00:23:04;;;;;;;59.17;20.70;;;;;;;;;;6214452;23;20437;-81
2023/05/19 00:25:29;;;;;;;48.47;18.80;;;;;;;;;;6187888;23;20000;-82
2023/05/19 00:27:55;;;;;;;55.13;18.50;;;;;;;;;;6188213;23;20420;-81
2023/05/19 00:30:21;;;;;;;51.13;18.98;;;;;;;;;;6187348;23;20015;-81
2023/05/19 00:32:47;;;;;;;48.05;19.02;;;;;;;;;;6163841;23;20102;-81
2023/05/19 00:35:12;;;;;;;53.00;18.73;;;;;;;;;;6187857;23;20004;-82
2023/05/19 00:37:38;;;;;;;51.13;19.60;;;;;;;;;;6187826;23;20047;-81
2023/05/19 00:40:05;;;;;;;57.00;19.48;;;;;;;;;;6187914;23;20008;-80
2023/05/19 00:42:31;;;;;;;54.40;19.02;;;;;;;;;;6214307;23;20008;-81
2023/05/19 00:44:57;;;;;;;46.85;19.20;;;;;;;;;;6213516;23;20104;-81
2023/05/19 00:47:22;;;;;;;55.28;19.00;;;;;;;;;;6187161;23;20005;-81
2023/05/19 00:49:48;;;;;;;52.63;18.98;;;;;;;;;;6187758;23;20047;-82
2023/05/19 00:52:13;;;;;;;56.72;19.33;;;;;;;;;;6162758;23;20014;-81
2023/05/19 00:54:39;;;;;;;44.83;18.20;;;;;;;;;;6187750;23;20374;-81
2023/05/19 00:57:04;;;;;;;47.88;19.67;;;;;;;;;;6187828;23;20079;-80
2023/05/19 00:59:30;;;;;;;47.97;18.48;;;;;;;;;;6187522;23;20003;-80
2023/05/19 01:01:55;;;;;;;50.22;19.50;;;;;;;;;;6187590;23;20011;-81
2023/05/19 01:04:21;;;;;;;47.72;18.77;;;;;;;;;;6187894;23;19996;-80
2023/05/19 01:06:48;;;;;;;47.67;19.08;;;;;;;;;;6163013;23;20076;-81
2023/05/19 01:09:14;;;;;;;48.28;18.02;;;;;;;;;;6163201;23;20004;-80
2023/05/19 01:11:40;;;;;;;48.95;18.25;;;;;;;;;;6162966;23;20040;-80
2023/05/19 01:14:05;;;;;;;53.63;20.15;;;;;;;;;;6187563;23;20055;-80
2023/05/19 01:16:38;;;;;;;45.20;18.27;;;;;;;;;;6187667;23;20005;-80
2023/05/19 01:19:30;;;;;;;54.20;19.23;;;;;;;;;;6163318;23;20011;-80
2023/05/19 01:22:11;;;;;;;61.35;19.48;;;;;;;;;;6187579;23;20462;-80
2023/05/19 01:24:43;;;;;;;53.72;19.98;;;;;;;;;;6163622;23;20004;-80
2023/05/19 01:27:17;;;;;;;54.10;20.77;;;;;;;;;;6213899;23;20001;-80
2023/05/19 01:30:07;;;;;;;53.35;19.20;;;;;;;;;;6187249;23;20398;-80
2023/05/19 01:32:33;;;;;;;47.22;18.23;;;;;;;;;;6214185;23;20016;-80
2023/05/19 01:34:58;;;;;;;46.53;18.30;;;;;;;;;;6162496;23;20000;-79
2023/05/19 01:37:24;;;;;;;48.97;18.80;;;;;;;;;;6162570;23;20014;-80
2023/05/19 01:39:50;;;;;;;55.85;19.95;;;;;;;;;;6162459;23;20005;-79
2023/05/19 01:42:15;;;;;;;47.40;18.98;;;;;;;;;;6137807;23;20949;-80
2023/05/19 01:44:41;;;;;;;51.33;19.15;;;;;;;;;;6137802;23;19997;-80
2023/05/19 01:47:06;;;;;;;47.65;19.15;;;;;;;;;;6187283;23;20011;-79
2023/05/19 01:49:31;;;;;;;51.53;18.90;;;;;;;;;;6162427;23;20080;-79
2023/05/19 01:51:57;;;;;;;55.20;18.98;;;;;;;;;;6187133;23;20015;-79
2023/05/19 01:54:22;;;;;;;45.75;18.40;;;;;;;;;;6187569;23;20000;-80
2023/05/19 01:57:15;;;;;;;51.05;18.65;;;;;;;;;;6186773;23;20011;-79
2023/05/19 02:00:37;;;;;;;46.15;18.90;;;;;;;;;;6162461;23;20011;-79
2023/05/19 02:03:03;;;;;;;56.10;18.58;;;;;;;;;;6063883;23;20021;-80
2023/05/19 02:05:29;;;;;;;59.15;20.40;;;;;;;;;;6040104;23;20458;-79
2023/05/19 02:08:04;;;;;;;55.17;19.08;;;;;;;;;;6127319;23;20347;-79
2023/05/19 02:10:30;;;;;;;51.63;19.92;;;;;;;;;;6138692;23;20012;-80
2023/05/19 02:12:55;;;;;;;50.97;18.88;;;;;;;;;;6161870;23;20008;-79
2023/05/19 02:15:27;;;;;;;59.85;20.38;;;;;;;;;;6137876;23;20000;-81
2023/05/19 02:17:53;;;;;;;60.55;20.23;;;;;;;;;;6188347;23;20005;-80
2023/05/19 02:20:18;;;;;;;51.83;19.08;;;;;;;;;;6137830;23;20027;-80
2023/05/19 02:22:44;;;;;;;56.22;19.00;;;;;;;;;;6163425;23;20494;-81
2023/05/19 02:25:09;;;;;;;53.15;19.52;;;;;;;;;;6164303;23;20431;-80
2023/05/19 02:27:35;;;;;;;47.58;18.25;;;;;;;;;;6164058;23;20009;-80
2023/05/19 02:30:03;;;;;;;48.90;18.67;;;;;;;;;;6164116;23;20112;-80
2023/05/19 02:32:28;;;;;;;52.97;18.90;;;;;;;;;;6164716;23;20012;-81
2023/05/19 02:34:55;;;;;;;51.72;19.02;;;;;;;;;;6188995;23;20023;-80
2023/05/19 02:37:22;;;;;;;48.13;19.05;;;;;;;;;;6215871;23;20067;-81
2023/05/19 02:39:48;;;;;;;50.25;17.60;;;;;;;;;;6164931;23;20012;-80
2023/05/19 02:42:16;;;;;;;49.15;18.52;;;;;;;;;;6164175;23;20013;-80
2023/05/19 02:44:42;;;;;;;50.53;19.27;;;;;;;;;;6215532;23;20008;-80
2023/05/19 02:47:07;;;;;;;49.05;18.02;;;;;;;;;;6164285;23;20379;-80
2023/05/19 02:49:34;;;;;;;44.03;17.98;;;;;;;;;;6139478;23;20095;-81
2023/05/19 02:52:01;;;;;;;43.35;18.15;;;;;;;;;;6189329;23;20039;-80
2023/05/19 02:54:28;;;;;;;50.17;17.45;;;;;;;;;;6214987;23;20419;-80
2023/05/19 02:56:54;;;;;;;47.65;17.77;;;;;;;;;;6215378;23;20100;-80
2023/05/19 02:59:19;;;;;;;51.90;18.15;;;;;;;;;;6164251;23;20415;-81
2023/05/19 03:01:46;;;;;;;46.75;17.67;;;;;;;;;;6215680;23;20004;-80
2023/05/19 03:04:12;;;;;;;40.85;17.10;;;;;;;;;;6164428;23;20000;-80
2023/05/19 03:06:38;;;;;;;49.17;17.80;;;;;;;;;;6164028;23;20008;-80
2023/05/19 03:09:04;;;;;;;45.60;18.08;;;;;;;;;;6163660;23;20335;-80
2023/05/19 03:11:30;;;;;;;50.92;17.00;;;;;;;;;;6164145;23;20402;-80
2023/05/19 03:13:55;;;;;;;48.40;16.95;;;;;;;;;;6164023;23;20059;-81
2023/05/19 03:16:21;;;;;;;46.05;17.15;;;;;;;;;;6164225;23;20483;-80
2023/05/19 03:18:47;;;;;;;45.47;17.55;;;;;;;;;;6164134;23;20008;-81
2023/05/19 03:21:12;;;;;;;48.25;17.20;;;;;;;;;;6188590;23;20004;-80
2023/05/19 03:23:37;;;;;;;48.72;17.20;;;;;;;;;;6188197;23;20339;-80
2023/05/19 03:26:03;;;;;;;51.45;17.98;;;;;;;;;;6215070;23;20001;-81
2023/05/19 03:28:28;;;;;;;52.50;18.48;;;;;;;;;;6215084;23;20083;-79
2023/05/19 03:30:54;;;;;;;46.55;17.27;;;;;;;;;;6214844;23;20004;-81
2023/05/19 03:33:19;;;;;;;47.60;16.88;;;;;;;;;;6163206;23;20012;-80
2023/05/19 03:35:45;;;;;;;48.50;17.15;;;;;;;;;;6163555;23;20008;-81
2023/05/19 03:38:10;;;;;;;55.25;18.55;;;;;;;;;;6214707;23;20005;-81
2023/05/19 03:40:36;;;;;;;50.17;17.60;;;;;;;;;;6188623;23;20027;-81
2023/05/19 03:43:01;;;;;;;54.30;19.35;;;;;;;;;;6188319;23;20000;-80
2023/05/19 03:45:27;;;;;;;51.13;18.55;;;;;;;;;;6215049;23;20080;-80
2023/05/19 03:47:52;;;;;;;46.97;17.40;;;;;;;;;;6188363;23;20430;-80
2023/05/19 03:50:18;;;;;;;52.08;18.33;;;;;;;;;;6163360;23;20004;-81
2023/05/19 03:52:45;;;;;;;50.53;18.67;;;;;;;;;;6214469;23;20007;-80
2023/05/19 03:55:10;;;;;;;52.47;18.38;;;;;;;;;;6163848;23;20066;-79
2023/05/19 03:57:36;;;;;;;53.42;18.73;;;;;;;;;;6188046;23;20028;-80
2023/05/19 04:00:04;;;;;;;48.35;18.13;;;;;;;;;;6188198;23;20028;-80
2023/05/19 04:02:30;;;;;;;49.53;17.05;;;;;;;;;;6163788;23;20328;-78
2023/05/19 04:04:56;;;;;;;46.28;18.55;;;;;;;;;;6214645;23;20080;-79
2023/05/19 04:07:21;;;;;;;51.75;19.52;;;;;;;;;;6163605;23;20001;-78
2023/05/19 04:09:47;;;;;;;50.75;19.33;;;;;;;;;;6187798;23;20009;-86
2023/05/19 04:12:22;;;;;;;49.45;18.58;;;;;;;;;;6163091;23;20009;-85
2023/05/19 04:14:47;;;;;;;47.55;16.80;;;;;;;;;;6213976;23;20067;-85
2023/05/19 04:17:13;;;;;;;53.75;18.27;;;;;;;;;;6187698;23;19993;-86
2023/05/19 04:19:39;;;;;;;43.63;17.60;;;;;;;;;;6138139;23;20428;-86
2023/05/19 04:22:04;;;;;;;45.17;17.75;;;;;;;;;;6187376;23;20309;-85
2023/05/19 04:24:30;;;;;;;41.33;17.02;;;;;;;;;;6162410;23;20075;-85
2023/05/19 04:27:01;;;;;;;44.85;17.15;;;;;;;;;;6187894;23;20019;-84
2023/05/19 04:29:28;;;;;;;50.47;17.90;;;;;;;;;;6213332;23;20119;-86
2023/05/19 04:31:54;;;;;;;44.55;17.52;;;;;;;;;;6163047;23;20004;-85
2023/05/19 04:34:47;;;;;;;42.20;15.55;;;;;;;;;;6165482;23;20012;-85
2023/05/19 04:37:13;;;;;;;49.92;18.27;;;;;;;;;;6187570;23;20004;-86
2023/05/19 04:39:42;;;;;;;44.95;16.88;;;;;;;;;;6163311;23;20033;-86
2023/05/19 04:42:08;;;;;;;45.50;17.63;;;;;;;;;;6186297;23;20080;-87
2023/05/19 04:44:35;;;;;;;48.35;17.70;;;;;;;;;;6162668;23;20039;-86
2023/05/19 04:47:00;;;;;;;43.13;17.48;;;;;;;;;;6187566;23;20055;-86
2023/05/19 04:49:25;;;;;;;47.65;18.05;;;;;;;;;;6162818;23;20281;-87
2023/05/19 04:51:51;;;;;;;48.53;18.17;;;;;;;;;;6163489;23;20012;-87
2023/05/19 04:54:17;;;;;;;43.45;16.50;;;;;;;;;;6137069;23;20007;-87
2023/05/19 04:56:45;;;;;;;50.30;16.92;;;;;;;;;;6140815;23;20395;-86
2023/05/19 05:01:39;;;;;;;42.78;16.77;;;;;;;;;;6200189;23;20025;-87
2023/05/19 05:04:06;;;;;;;41.72;15.70;;;;;;;;;;6208071;23;20030;-87
2023/05/19 05:06:32;;;;;;;40.60;16.58;;;;;;;;;;6179973;23;20009;-87
2023/05/19 05:08:58;;;;;;;43.78;16.27;;;;;;;;;;6184455;23;20009;-87
2023/05/19 05:11:27;;;;;;;48.88;18.75;;;;;;;;;;6204761;23;20027;-86
2023/05/19 05:13:56;;;;;;;42.67;17.48;;;;;;;;;;6234403;23;20009;-86
2023/05/19 05:16:22;;;;;;;42.22;16.10;;;;;;;;;;6199398;23;20005;-87
2023/05/19 05:18:51;;;;;;;44.25;16.60;;;;;;;;;;6163551;23;20013;-79
2023/05/19 05:21:17;;;;;;;43.85;16.55;;;;;;;;;;6212358;23;20005;-78
2023/05/19 05:23:42;;;;;;;40.60;15.40;;;;;;;;;;6214080;23;20015;-78
2023/05/19 05:26:21;;;;;;;42.20;15.80;;;;;;;;;;6211548;23;20514;-80
2023/05/19 05:28:48;;;;;;;44.20;16.52;;;;;;;;;;6210865;23;20016;-79
2023/05/19 05:31:13;;;;;;;33.83;14.73;;;;;;;;;;6211496;23;20001;-79
2023/05/19 05:33:39;;;;;;;32.50;14.55;;;;;;;;;;6210356;23;20005;-80
2023/05/19 05:36:05;;;;;;;33.20;14.88;;;;;;;;;;6209337;23;19996;-79
2023/05/19 05:38:30;;;;;;;32.40;14.73;;;;;;;;;;6208897;23;20001;-80
2023/05/19 05:40:55;;;;;;;38.97;16.00;;;;;;;;;;6209010;23;20004;-80
2023/05/19 05:43:21;;;;;;;33.88;14.70;;;;;;;;;;6184590;23;20108;-81
2023/05/19 05:45:46;;;;;;;39.72;16.08;;;;;;;;;;6211582;23;20004;-79
2023/05/19 05:48:12;;;;;;;40.75;15.65;;;;;;;;;;6186882;23;20031;-80
2023/05/19 05:50:38;;;;;;;38.25;14.68;;;;;;;;;;6211441;23;20051;-80
2023/05/19 05:53:03;;;;;;;38.72;14.55;;;;;;;;;;6186910;23;20479;-80
2023/05/19 05:55:29;;;;;;;35.75;14.90;;;;;;;;;;6211583;23;20000;-81
2023/05/19 05:57:55;;;;;;;35.88;14.75;;;;;;;;;;6212926;23;20432;-80
2023/05/19 06:00:21;;;;;;;33.25;13.57;;;;;;;;;;6213592;23;20001;-80
2023/05/19 06:02:49;;;;;;;33.08;13.82;;;;;;;;;;6213325;23;20032;-81
2023/05/19 06:05:14;;;;;;;34.33;13.50;;;;;;;;;;6212009;23;20479;-81
2023/05/19 06:07:40;;;;;;;28.58;12.73;;;;;;;;;;6211428;23;20005;-80
2023/05/19 06:10:06;;;;;;;39.05;13.75;;;;;;;;;;6209977;23;20001;-81
2023/05/19 06:12:31;;;;;;;30.90;13.55;;;;;;;;;;6211822;23;20009;-81
2023/05/19 06:14:57;;;;;;;38.80;13.60;;;;;;;;;;6209993;23;20001;-81
2023/05/19 06:17:22;;;;;;;33.90;13.45;;;;;;;;;;6184962;23;20005;-80
2023/05/19 06:19:48;;;;;;;32.17;13.48;;;;;;;;;;6210162;23;20005;-79
2023/05/19 06:22:13;;;;;;;30.65;13.52;;;;;;;;;;6184952;23;20008;-79
2023/05/19 06:24:38;;;;;;;31.92;12.80;;;;;;;;;;6211389;23;20000;-80
2023/05/19 06:27:04;;;;;;;33.95;13.45;;;;;;;;;;6209808;23;20044;-79
2023/05/19 06:29:29;;;;;;;27.38;12.55;;;;;;;;;;6212290;23;20024;-80
2023/05/19 06:31:55;;;;;;;30.83;12.95;;;;;;;;;;6210171;23;20008;-80
2023/05/19 06:34:20;;;;;;;27.48;11.63;;;;;;;;;;6185837;23;20001;-79
2023/05/19 06:36:46;;;;;;;22.23;12.05;;;;;;;;;;6212148;23;20412;-76
2023/05/19 06:39:11;;;;;;;26.20;11.50;;;;;;;;;;6213374;23;20087;-78
2023/05/19 06:41:36;;;;;;;28.60;11.35;;;;;;;;;;6186956;23;20008;-80
2023/05/19 06:44:03;;;;;;;24.10;11.32;;;;;;;;;;6186982;23;20008;-80
2023/05/19 06:46:28;;;;;;;20.67;11.07;;;;;;;;;;6186328;23;20004;-80
2023/05/19 06:48:53;;;;;;;22.50;10.65;;;;;;;;;;6213256;23;20071;-81
2023/05/19 06:51:21;;;;;;;22.38;11.30;;;;;;;;;;6211670;23;20012;-79
2023/05/19 06:53:49;;;;;;;17.95;10.07;;;;;;;;;;6187036;23;20001;-80
2023/05/19 06:56:15;;;;;;;20.65;10.80;;;;;;;;;;6213180;23;20005;-78
2023/05/19 06:58:40;;;;;;;19.25;10.48;;;;;;;;;;6213326;23;20027;-78
2023/05/19 07:01:06;;;;;;;22.70;10.77;;;;;;;;;;6212843;23;20091;-78
2023/05/19 07:03:31;;;;;;;20.33;9.50;;;;;;;;;;6212766;23;20008;-80
2023/05/19 07:05:57;;;;;;;15.85;8.90;;;;;;;;;;6210322;23;20020;-80
2023/05/19 07:08:22;;;;;;;19.45;10.07;;;;;;;;;;6213792;23;20348;-80
2023/05/19 07:10:48;;;;;;;15.60;9.48;;;;;;;;;;6188379;23;20083;-80
2023/05/19 07:13:13;;;;;;;17.05;10.45;;;;;;;;;;6213689;23;20000;-79
2023/05/19 07:15:39;;;;;;;16.33;9.35;;;;;;;;;;6214679;23;20344;-80
2023/05/19 07:18:04;;;;;;;16.63;9.75;;;;;;;;;;6188632;23;20078;-79
2023/05/19 07:20:30;;;;;;;14.93;8.88;;;;;;;;;;6214019;23;20008;-80
2023/05/19 07:22:55;;;;;;;16.65;9.38;;;;;;;;;;6161930;23;20008;-80
2023/05/19 07:25:21;;;;;;;16.45;9.45;;;;;;;;;;6211534;23;20012;-81
2023/05/19 07:27:46;;;;;;;13.85;9.55;;;;;;;;;;6211489;23;20011;-81
2023/05/19 07:30:12;;;;;;;16.38;9.95;;;;;;;;;;6213983;23;20079;-80
2023/05/19 07:32:37;;;;;;;16.23;10.77;;;;;;;;;;6187660;23;20120;-80
2023/05/19 07:35:04;;;;;;;21.27;10.60;;;;;;;;;;6187019;23;20009;-81
2023/05/19 07:37:29;;;;;;;18.58;10.88;;;;;;;;;;6211769;23;20001;-81
2023/05/19 07:39:55;;;;;;;18.60;11.10;;;;;;;;;;6214078;23;20333;-81
2023/05/19 07:42:20;;;;;;;18.48;10.68;;;;;;;;;;6214491;23;20053;-80
2023/05/19 07:44:46;;;;;;;23.27;10.77;;;;;;;;;;6213039;23;20440;-79
2023/05/19 07:47:13;;;;;;;18.23;10.68;;;;;;;;;;6214020;23;20437;-88
2023/05/19 07:49:38;;;;;;;18.80;10.73;;;;;;;;;;6212802;23;20355;-84
2023/05/19 07:52:04;;;;;;;17.55;10.88;;;;;;;;;;6211855;23;20004;-88
2023/05/19 07:54:29;;;;;;;20.42;11.23;;;;;;;;;;6185715;23;20167;-88
2023/05/19 07:56:55;;;;;;;21.90;11.13;;;;;;;;;;6209885;23;20316;-87
2023/05/19 07:59:21;;;;;;;16.95;11.35;;;;;;;;;;6212359;23;20011;-89
2023/05/19 08:01:46;;;;;;;15.13;11.55;;;;;;;;;;6161854;23;20020;-87
2023/05/19 08:04:12;;;;;;;16.77;11.10;;;;;;;;;;6186662;23;20012;-85
2023/05/19 08:06:38;;;;;;;19.15;11.40;;;;;;;;;;6212925;23;20062;-87
2023/05/19 08:09:04;;;;;;;15.30;11.15;;;;;;;;;;6211476;23;20444;-87
2023/05/19 08:11:30;;;;;;;19.58;11.35;;;;;;;;;;6213453;23;20142;-88
2023/05/19 08:13:55;;;;;;;16.55;11.43;;;;;;;;;;6187381;23;20001;-88
2023/05/19 08:16:21;;;;;;;17.42;11.35;;;;;;;;;;6213162;23;20004;-88
2023/05/19 08:18:46;;;;;;;17.25;11.02;;;;;;;;;;6214240;23;20005;-86
2023/05/19 08:21:12;;;;;;;17.77;11.98;;;;;;;;;;6212636;23;20004;-86
2023/05/19 08:23:37;;;;;;;19.73;12.10;;;;;;;;;;6186564;23;20004;-88
2023/05/19 08:26:03;;;;;;;20.33;11.70;;;;;;;;;;6186363;23;20008;-89
2023/05/19 08:28:29;;;;;;;17.40;11.43;;;;;;;;;;6186012;23;20007;-87
2023/05/19 08:30:54;;;;;;;16.02;11.35;;;;;;;;;;6186026;23;20009;-88
2023/05/19 08:33:20;;;;;;;20.85;12.02;;;;;;;;;;6211427;23;20001;-88
2023/05/19 08:35:46;;;;;;;21.15;12.70;;;;;;;;;;6212013;23;20009;-89
2023/05/19 08:38:13;;;;;;;17.13;12.20;;;;;;;;;;6161520;23;20011;-89
2023/05/19 08:40:42;;;;;;;19.48;12.15;;;;;;;;;;6212335;23;20310;-89
2023/05/19 08:43:07;;;;;;;17.92;11.45;;;;;;;;;;6211155;23;20035;-88
2023/05/19 08:45:37;;;;;;;17.80;11.68;;;;;;;;;;6210852;23;20252;-88
2023/05/19 08:48:02;;;;;;;20.77;12.60;;;;;;;;;;6187943;23;20009;-87
2023/05/19 08:50:29;;;;;;;16.52;11.30;;;;;;;;;;6162692;23;20079;-86
2023/05/19 08:53:00;;;;;;;19.40;12.23;;;;;;;;;;6188559;23;20005;-86
2023/05/19 08:56:02;;;;;;;20.50;12.00;;;;;;;;;;6188936;23;20079;-87
2023/05/19 08:58:28;;;;;;;19.38;11.68;;;;;;;;;;6212348;23;20451;-87
2023/05/19 09:00:54;;;;;;;21.60;11.98;;;;;;;;;;6162626;23;20005;-89
2023/05/19 09:03:20;;;;;;;24.23;12.43;;;;;;;;;;6211961;23;20008;-89
2023/05/19 09:05:45;;;;;;;22.15;11.52;;;;;;;;;;6187494;23;20004;-88
2023/05/19 09:08:11;;;;;;;17.13;11.27;;;;;;;;;;6162520;23;20000;-89
2023/05/19 09:10:36;;;;;;;17.38;11.05;;;;;;;;;;6189049;23;20012;-89
2023/05/19 09:13:02;;;;;;;15.82;11.32;;;;;;;;;;6188129;23;20001;-89
2023/05/19 09:15:27;;;;;;;16.00;11.30;;;;;;;;;;6187344;23;20004;-88
2023/05/19 09:18:23;;;;;;;16.48;11.20;;;;;;;;;;6185581;23;20001;-88
2023/05/19 09:20:49;;;;;;;17.77;11.07;;;;;;;;;;6154447;23;20005;-89
2023/05/19 09:23:15;;;;;;;15.30;11.02;;;;;;;;;;6212153;23;20005;-88
2023/05/19 09:25:48;;;;;;;15.98;11.32;;;;;;;;;;6210878;23;19997;-87
2023/05/19 09:28:13;;;;;;;16.58;12.00;;;;;;;;;;6186683;23;20343;-87
2023/05/19 09:30:39;;;;;;;20.85;12.15;;;;;;;;;;6185159;23;20031;-88
2023/05/19 09:33:08;;;;;;;19.63;11.25;;;;;;;;;;6186769;23;20019;-89
2023/05/19 09:35:34;;;;;;;18.70;11.98;;;;;;;;;;6211936;23;20348;-89
2023/05/19 09:38:00;;;;;;;17.45;10.93;;;;;;;;;;6212518;23;20000;-89
2023/05/19 09:40:29;;;;;;;18.58;10.80;;;;;;;;;;6211516;23;20363;-86
2023/05/19 09:42:55;;;;;;;19.83;11.50;;;;;;;;;;6162662;23;20071;-89
2023/05/19 09:45:20;;;;;;;14.32;10.90;;;;;;;;;;6188574;23;20081;-89
2023/05/19 09:47:46;;;;;;;16.52;10.40;;;;;;;;;;6212640;23;20136;-89
2023/05/19 09:50:12;;;;;;;17.20;10.73;;;;;;;;;;6162696;23;20440;-89
2023/05/19 09:52:38;;;;;;;15.32;11.25;;;;;;;;;;6163875;23;20017;-89
2023/05/19 09:55:11;;;;;;;17.98;10.77;;;;;;;;;;6186819;23;20023;-88
2023/05/19 09:57:40;;;;;;;16.73;11.18;;;;;;;;;;6187687;23;20395;-88
2023/05/19 10:00:24;;;;;;;16.13;10.95;;;;;;;;;;6161876;23;20032;-89
2023/05/19 10:02:50;;;;;;;15.98;10.55;;;;;;;;;;6213577;23;20016;-90
2023/05/19 10:05:18;;;;;;;24.77;11.02;;;;;;;;;;6185735;23;20031;-89
2023/05/19 10:07:51;;;;;;;15.98;10.48;;;;;;;;;;6189278;23;20004;-89
2023/05/19 10:10:18;;;;;;;15.68;11.07;;;;;;;;;;6187944;23;19997;-88
2023/05/19 10:12:44;;;;;;;15.52;10.50;;;;;;;;;;6187238;23;20074;-88
2023/05/19 10:15:11;;;;;;;14.43;10.43;;;;;;;;;;6187821;23;20126;-89
2023/05/19 10:17:40;;;;;;;18.77;10.98;;;;;;;;;;6163617;23;20009;-88
2023/05/19 10:20:09;;;;;;;19.65;11.00;;;;;;;;;;6214474;23;20083;-88
2023/05/19 10:22:36;;;;;;;18.13;10.38;;;;;;;;;;6163334;23;20096;-88
2023/05/19 10:25:02;;;;;;;16.80;10.82;;;;;;;;;;6162956;23;20005;-87
2023/05/19 10:27:27;;;;;;;17.25;11.20;;;;;;;;;;6187342;23;20427;-88
2023/05/19 10:29:53;;;;;;;19.52;11.23;;;;;;;;;;6162632;23;20500;-89
2023/05/19 10:32:22;;;;;;;17.40;11.20;;;;;;;;;;6212604;23;20362;-87
2023/05/19 10:35:08;;;;;;;17.40;11.30;;;;;;;;;;6187311;23;20013;-87
2023/05/19 10:37:36;;;;;;;18.30;10.75;;;;;;;;;;6211890;23;19996;-88
2023/05/19 10:40:34;;;;;;;16.58;10.88;;;;;;;;;;6212295;23;20044;-87
2023/05/19 10:43:28;;;;;;;15.65;11.05;;;;;;;;;;6202792;23;20004;-86
2023/05/19 10:45:54;;;;;;;17.17;11.48;;;;;;;;;;6214240;23;20016;-88
2023/05/19 10:48:21;;;;;;;19.17;11.35;;;;;;;;;;6164387;23;20005;-88
2023/05/19 10:50:47;;;;;;;17.35;11.30;;;;;;;;;;6164925;23;20013;-86
2023/05/19 10:53:21;;;;;;;25.25;16.58;;;;;;;;;;6188898;23;20027;-88
2023/05/19 10:55:54;;;;;;;20.83;12.57;;;;;;;;;;6189761;23;20329;-89
2023/05/19 10:58:44;;;;;;;16.27;11.70;;;;;;;;;;6190780;23;20084;-89
2023/05/19 11:01:14;;;;;;;18.05;11.32;;;;;;;;;;6213956;23;20008;-88
2023/05/19 11:03:56;;;;;;;22.83;12.18;;;;;;;;;;6214559;23;20008;-89
2023/05/19 11:06:27;;;;;;;19.90;11.75;;;;;;;;;;6189660;23;20143;-89
2023/05/19 11:08:53;;;;;;;17.15;11.38;;;;;;;;;;6213538;23;20044;-89
2023/05/19 11:11:20;;;;;;;49.00;29.38;;;;;;;;;;6189551;23;20000;-88
2023/05/19 11:13:55;;;;;;;22.58;12.13;;;;;;;;;;6189245;23;20011;-88
2023/05/19 11:16:30;;;;;;;19.45;11.70;;;;;;;;;;6189259;23;20079;-90
2023/05/19 11:18:58;;;;;;;19.60;11.98;;;;;;;;;;6189342;23;20063;-89
2023/05/19 11:21:23;;;;;;;18.67;11.15;;;;;;;;;;6188939;23;20066;-89
2023/05/19 11:23:55;;;;;;;16.90;10.85;;;;;;;;;;6214089;23;20032;-90
2023/05/19 11:26:42;;;;;;;20.08;10.70;;;;;;;;;;6188688;23;20371;-90
2023/05/19 11:29:08;;;;;;;17.90;11.18;;;;;;;;;;6166876;23;20070;-90
2023/05/19 11:31:35;;;;;;;23.23;11.48;;;;;;;;;;6189075;23;20004;-89
2023/05/19 11:34:00;;;;;;;19.27;11.40;;;;;;;;;;6189968;23;20004;-89
2023/05/19 11:36:27;;;;;;;18.65;10.48;;;;;;;;;;6189350;23;20424;-89
2023/05/19 11:38:53;;;;;;;19.17;11.27;;;;;;;;;;6190295;23;20004;-89
2023/05/19 11:41:20;;;;;;;20.30;11.35;;;;;;;;;;6190933;23;20012;-90
2023/05/19 11:43:46;;;;;;;17.88;11.30;;;;;;;;;;6165427;23;20087;-89
2023/05/19 11:46:13;;;;;;;17.52;11.52;;;;;;;;;;6214448;23;20005;-89
2023/05/19 11:48:38;;;;;;;20.35;12.90;;;;;;;;;;6214745;23;20015;-87
2023/05/19 11:51:05;;;;;;;19.88;11.95;;;;;;;;;;6163450;23;20107;-88
2023/05/19 11:53:31;;;;;;;30.67;15.60;;;;;;;;;;6188351;23;20032;-88
2023/05/19 11:55:56;;;;;;;19.27;12.02;;;;;;;;;;6187892;23;20012;-80
2023/05/19 11:58:26;;;;;;;18.23;11.63;;;;;;;;;;6187740;23;20001;-79
2023/05/19 12:00:52;;;;;;;;;;;;;;;;;;6213460;23;20423;-80
2023/05/19 12:03:20;;;;;;;21.83;11.35;;;;;;;;;;6214396;23;19915;-79
2023/05/19 12:05:46;;;;;;;17.88;11.65;;;;;;;;;;6187856;23;20352;-79
2023/05/19 12:08:12;;;;;;;21.40;11.50;;;;;;;;;;6212988;23;20016;-79
2023/05/19 12:10:37;;;;;;;19.52;11.23;;;;;;;;;;6188171;23;20040;-79
2023/05/19 12:13:06;;;;;;;18.40;11.25;;;;;;;;;;6212805;23;20001;-79
2023/05/19 12:15:32;;;;;;;22.40;11.57;;;;;;;;;;6213165;23;20102;-79
2023/05/19 12:17:59;;;;;;;16.80;11.48;;;;;;;;;;6213214;23;20440;-79
2023/05/19 12:20:25;;;;;;;20.55;11.13;;;;;;;;;;6187813;23;20070;-79
2023/05/19 12:22:51;;;;;;;19.75;12.27;;;;;;;;;;6188010;23;20008;-79
2023/05/19 12:25:16;;;;;;;18.00;11.57;;;;;;;;;;6187853;23;20107;-80
2023/05/19 12:27:42;;;;;;;20.08;11.10;;;;;;;;;;6187895;23;20005;-80
2023/05/19 12:30:08;;;;;;;20.25;11.32;;;;;;;;;;6213120;23;20007;-80
2023/05/19 12:32:35;;;;;;;18.38;11.63;;;;;;;;;;6188467;23;20091;-80
2023/05/19 12:35:01;;;;;;;23.83;11.15;;;;;;;;;;6212488;23;20071;-79
2023/05/19 12:37:28;;;;;;;20.60;11.23;;;;;;;;;;6212825;23;20012;-79
2023/05/19 12:39:54;;;;;;;18.48;10.65;;;;;;;;;;6213209;23;20336;-79
2023/05/19 12:42:20;;;;;;;19.17;11.65;;;;;;;;;;6212578;23;20047;-80
2023/05/19 12:44:47;;;;;;;19.08;11.43;;;;;;;;;;6212570;23;20004;-80
2023/05/19 12:47:13;;;;;;;22.13;11.00;;;;;;;;;;6187686;23;20032;-79
2023/05/19 12:49:58;;;;;;;21.15;11.73;;;;;;;;;;6212198;23;20266;-80
2023/05/19 12:52:23;;;;;;;18.10;11.52;;;;;;;;;;6214064;23;20344;-80
2023/05/19 12:54:51;;;;;;;21.75;11.65;;;;;;;;;;6187506;23;20008;-79
2023/05/19 12:57:16;;;;;;;20.83;12.10;;;;;;;;;;6187859;23;20024;-80
2023/05/19 12:59:42;;;;;;;23.45;12.00;;;;;;;;;;6212946;23;20416;-81
2023/05/19 13:02:07;;;;;;;20.15;11.02;;;;;;;;;;6187128;23;20084;-81
2023/05/19 13:04:32;;;;;;;18.45;11.15;;;;;;;;;;6212204;23;20047;-80
2023/05/19 13:06:58;;;;;;;18.63;11.57;;;;;;;;;;6211628;23;20011;-80
2023/05/19 13:09:23;;;;;;;19.85;11.85;;;;;;;;;;6212044;23;20004;-80
2023/05/19 13:11:50;;;;;;;19.60;11.80;;;;;;;;;;6213824;23;20084;-80
2023/05/19 13:14:17;;;;;;;19.27;11.38;;;;;;;;;;6213855;23;20032;-80
2023/05/19 13:16:46;;;;;;;18.52;11.52;;;;;;;;;;6212158;23;20005;-79
2023/05/19 13:19:17;;;;;;;21.63;11.73;;;;;;;;;;6213393;23;20008;-78
2023/05/19 13:21:42;;;;;;;21.35;11.60;;;;;;;;;;6213808;23;20009;-81
2023/05/19 13:24:08;;;;;;;24.65;12.52;;;;;;;;;;6212472;23;20023;-80
2023/05/19 13:26:34;;;;;;;19.92;11.65;;;;;;;;;;6213478;23;20004;-78
2023/05/19 13:29:01;;;;;;;19.58;12.02;;;;;;;;;;6187066;23;20001;-78
2023/05/19 13:31:26;;;;;;;20.35;12.40;;;;;;;;;;6187236;23;20005;-79
2023/05/19 13:33:51;;;;;;;21.92;12.70;;;;;;;;;;6211776;23;20001;-78
2023/05/19 13:36:17;;;;;;;21.05;12.18;;;;;;;;;;6213558;23;20075;-79
2023/05/19 13:38:42;;;;;;;19.48;11.15;;;;;;;;;;6212093;23;20444;-80
2023/05/19 13:41:08;;;;;;;22.58;11.90;;;;;;;;;;6213418;23;20006;-80
2023/05/19 13:43:33;;;;;;;20.95;11.88;;;;;;;;;;6212076;23;20079;-80
2023/05/19 13:45:59;;;;;;;25.00;12.43;;;;;;;;;;6212435;23;19998;-79
2023/05/19 13:48:24;;;;;;;19.92;11.85;;;;;;;;;;6211570;23;20004;-79
2023/05/19 13:50:53;;;;;;;20.48;11.43;;;;;;;;;;6211781;23;19997;-79
2023/05/19 13:53:18;;;;;;;20.55;11.52;;;;;;;;;;6213355;23;20075;-79
2023/05/19 13:55:44;;;;;;;17.98;11.40;;;;;;;;;;6187053;23;20001;-79
2023/05/19 13:58:10;;;;;;;21.08;12.18;;;;;;;;;;6213354;23;20007;-81
2023/05/19 14:00:35;;;;;;;22.67;11.82;;;;;;;;;;6213245;23;20000;-79
2023/05/19 14:03:01;;;;;;;21.50;11.38;;;;;;;;;;6211737;23;20016;-80
2023/05/19 14:05:27;;;;;;;22.83;11.23;;;;;;;;;;6212038;23;20001;-81
2023/05/19 14:07:53;;;;;;;21.90;12.50;;;;;;;;;;6213230;23;20071;-78
2023/05/19 14:10:19;;;;;;;20.63;11.55;;;;;;;;;;6211861;23;20005;-79
2023/05/19 14:12:44;;;;;;;19.92;11.63;;;;;;;;;;6213406;23;20009;-78
2023/05/19 14:15:10;;;;;;;20.63;12.10;;;;;;;;;;6211993;23;20494;-78
2023/05/19 14:17:36;;;;;;;25.45;11.93;;;;;;;;;;6186174;23;20036;-80
2023/05/19 14:20:01;;;;;;;18.60;11.77;;;;;;;;;;6213309;23;20000;-79
2023/05/19 14:22:27;;;;;;;29.15;12.27;;;;;;;;;;6212290;23;20052;-80